Time;durP1;ratioP1;P1;durP2;ratioP2;P2;SDS_P1;SDS_P2;PMS_P1;PMS_P2;Temp;Humidity;BMP_temperature;BMP_pressure;BME280_temperature;BME280_humidity;BME280_pressure;Samples;Min_cycle;Max_cycle;Signal;HPM_P1;HPM_P2
2021/05/06 00:01:58;;;;;;;1.63;1.33;;;;;;;4.42;75.95;96124.69;5074526;28;20045;-79
2021/05/06 00:34:10;;;;;;;1.60;1.40;;;;;;;4.40;77.46;96099.91;5074360;28;20377;-76
2021/05/06 00:36:37;;;;;;;2.00;1.33;;;;;;;4.42;77.37;96101.31;5073974;28;20042;-77
2021/05/06 00:39:12;;;;;;;1.30;1.20;;;;;;;4.43;77.53;96102.09;5056133;28;20036;-78
2021/05/06 01:00:40;;;;;;;2.55;1.42;;;;;;;4.29;77.99;96082.25;5074181;28;20052;-78
2021/05/06 01:05:55;;;;;;;2.08;1.02;;;;;;;4.31;78.20;96080.25;5073783;28;20503;-78
2021/05/06 01:08:25;;;;;;;0.98;0.98;;;;;;;4.34;78.26;96085.06;5074306;28;20035;-78
2021/05/06 01:13:29;;;;;;;1.65;1.25;;;;;;;4.38;78.27;96084.50;5074134;28;20477;-79
2021/05/06 01:15:55;;;;;;;2.00;1.55;;;;;;;4.40;78.23;96084.31;5073187;28;20389;-79
2021/05/06 01:18:22;;;;;;;1.02;1.02;;;;;;;4.42;78.34;96072.75;5072930;28;20047;-79
2021/05/06 01:20:53;;;;;;;1.30;1.20;;;;;;;4.46;78.39;96076.56;5073515;28;20031;-79
2021/05/06 01:23:23;;;;;;;3.42;1.50;;;;;;;4.51;78.45;96075.22;5073973;28;20043;-78
2021/05/06 01:25:56;;;;;;;2.58;1.63;;;;;;;4.54;78.47;96078.25;5073240;28;20472;-79
2021/05/06 01:28:26;;;;;;;2.53;1.63;;;;;;;4.57;78.42;96074.47;5072446;28;20369;-79
2021/05/06 01:34:16;;;;;;;1.60;1.38;;;;;;;4.55;78.07;96061.66;5080836;28;20071;-79
2021/05/06 01:36:48;;;;;;;2.20;1.20;;;;;;;4.57;77.88;96062.28;5060615;28;20048;-79
2021/05/06 01:44:36;;;;;;;1.30;1.20;;;;;;;4.52;77.96;96058.66;5072922;28;20044;-78
2021/05/06 02:00:20;;;;;;;1.40;1.30;;;;;;;4.50;78.24;96053.66;5073522;28;20067;-79
2021/05/06 02:02:47;;;;;;;1.50;1.40;;;;;;;4.48;78.37;96051.22;5073089;28;20411;-79
2021/05/06 02:05:15;;;;;;;1.40;1.25;;;;;;;4.48;78.16;96045.25;5072676;28;20032;-78
2021/05/06 02:07:43;;;;;;;3.55;1.77;;;;;;;4.48;78.37;96053.03;5073086;28;20044;-78
2021/05/06 02:10:16;;;;;;;1.63;1.52;;;;;;;4.47;78.49;96046.22;5073660;28;20044;-80
2021/05/06 02:12:43;;;;;;;1.50;1.40;;;;;;;4.47;78.54;96044.44;5072347;28;20055;-80
2021/05/06 02:15:28;;;;;;;1.60;1.50;;;;;;;4.46;78.38;96037.63;5073269;28;20049;-80
2021/05/06 02:17:55;;;;;;;;;;;;;;;4.46;79.51;96035.03;5072197;28;20037;-80
2021/05/06 02:20:22;;;;;;;1.50;1.40;;;;;;;4.48;78.75;96037.44;5072646;28;19920;-78
2021/05/06 02:22:50;;;;;;;2.97;1.70;;;;;;;4.50;78.55;96027.69;5073048;28;20051;-79
2021/05/06 02:25:17;;;;;;;1.80;1.40;;;;;;;4.49;78.31;96023.47;5073005;28;20032;-79
2021/05/06 02:27:43;;;;;;;3.90;1.50;;;;;;;4.53;78.48;96029.88;5072824;28;20037;-80
2021/05/06 02:30:11;;;;;;;1.67;1.35;;;;;;;4.57;78.78;96040.69;5072778;28;20059;-80
2021/05/06 02:32:37;;;;;;;1.75;1.33;;;;;;;4.61;78.56;96032.34;5072503;28;20032;-79
2021/05/06 02:35:04;;;;;;;1.63;1.30;;;;;;;4.61;78.54;96037.53;5071447;28;20044;-79
2021/05/06 02:37:30;;;;;;;2.67;1.40;;;;;;;4.64;78.61;96026.78;5059604;28;20036;-79
2021/05/06 02:39:56;;;;;;;1.63;1.27;;;;;;;4.66;78.55;96024.78;5072805;28;20468;-80
2021/05/06 02:42:23;;;;;;;2.75;1.50;;;;;;;4.68;78.34;96016.78;5072528;28;20040;-78
2021/05/06 02:44:49;;;;;;;2.65;1.30;;;;;;;4.68;78.29;96012.41;5074298;28;20056;-78
2021/05/06 02:47:16;;;;;;;1.70;1.60;;;;;;;4.66;78.44;96005.78;5076490;28;20048;-78
2021/05/06 02:49:47;;;;;;;2.67;1.60;;;;;;;4.63;78.42;96004.38;5073897;28;20043;-78
2021/05/06 02:52:37;;;;;;;1.55;1.25;;;;;;;4.60;78.26;95999.59;5076465;28;20047;-78
2021/05/06 02:55:10;;;;;;;1.25;1.13;;;;;;;4.59;78.35;96003.16;5075943;28;20048;-78
2021/05/06 03:02:58;;;;;;;1.50;1.40;;;;;;;4.65;78.60;96007.59;5076518;28;20049;-81
2021/05/06 03:05:28;;;;;;;1.42;1.33;;;;;;;4.66;78.76;96004.00;5075895;28;20036;-82
2021/05/06 03:08:13;;;;;;;1.45;1.35;;;;;;;4.68;78.83;96006.41;5074447;28;20033;-82
2021/05/06 03:10:49;;;;;;;1.42;1.33;;;;;;;4.67;78.61;95997.03;5074374;28;20392;-82
2021/05/06 03:21:34;;;;;;;2.20;1.30;;;;;;;4.70;78.83;95988.81;5075877;28;20041;-80
2021/05/06 03:24:02;;;;;;;1.98;1.60;;;;;;;4.65;79.18;95979.03;5075604;28;20045;-79
2021/05/06 03:26:31;;;;;;;1.73;1.63;;;;;;;4.65;78.88;95978.22;5075687;28;20151;-78
2021/05/06 03:29:02;;;;;;;1.33;1.25;;;;;;;4.66;79.06;95974.63;5075215;28;20056;-78
2021/05/06 03:42:35;;;;;;;2.05;1.33;;;;;;;4.66;78.61;95959.88;5075224;28;19908;-79
2021/05/06 03:46:02;;;;;;;1.10;1.00;;;;;;;4.66;78.74;95951.25;5075127;28;20041;-78
2021/05/06 04:36:23;;;;;;;1.80;1.60;;;;;;;4.53;78.58;95922.63;5066833;28;20044;-77
2021/05/06 04:38:49;;;;;;;2.10;1.40;;;;;;;4.61;78.44;95928.47;5066106;28;20053;-77
2021/05/06 04:55:30;;;;;;;1.20;1.20;;;;;;;5.84;77.99;95928.34;5074115;28;20056;-79
2021/05/06 04:58:06;;;;;;;1.88;1.65;;;;;;;5.89;77.41;95920.72;5073063;28;20044;-78
2021/05/06 05:06:11;;;;;;;1.75;1.38;;;;;;;5.46;77.00;95920.31;5074014;28;20040;-79
2021/05/06 05:08:58;;;;;;;1.20;1.10;;;;;;;5.51;77.95;95917.91;5073176;28;20041;-79
2021/05/06 05:11:46;;;;;;;1.02;0.95;;;;;;;5.62;77.81;95913.91;5072542;28;20036;-79
2021/05/06 05:20:06;;;;;;;1.65;1.13;;;;;;;6.22;77.80;95916.53;5073596;28;20055;-79
2021/05/06 05:25:28;;;;;;;;;;;;;;;6.16;75.30;95912.13;5073087;28;20047;-80
2021/05/06 05:27:58;;;;;;;1.42;1.33;;;;;;;5.92;75.35;95908.31;5073347;28;19912;-81
2021/05/06 05:30:28;;;;;;;2.30;1.42;;;;;;;5.82;76.41;95908.75;5071929;28;20036;-82
2021/05/06 05:32:54;;;;;;;2.40;1.42;;;;;;;5.82;76.71;95909.53;5072126;28;20044;-81
2021/05/06 05:35:41;;;;;;;2.97;1.60;;;;;;;5.80;76.39;95914.13;5072998;28;20385;-81
2021/05/06 05:38:18;;;;;;;1.45;1.35;;;;;;;5.83;77.24;95907.72;5072768;28;20052;-81
2021/05/06 05:40:59;;;;;;;1.30;1.20;;;;;;;5.92;77.39;95906.50;5073730;28;20033;-80
2021/05/06 05:56:53;;;;;;;1.73;1.63;;;;;;;5.60;77.03;95879.50;5071540;28;20049;-78
2021/05/06 05:59:19;;;;;;;2.40;1.60;;;;;;;5.60;77.13;95890.69;5072821;28;20052;-80
2021/05/06 06:01:45;;;;;;;2.13;1.48;;;;;;;5.63;77.15;95882.53;5071737;28;20055;-80
2021/05/06 06:04:11;;;;;;;1.60;1.50;;;;;;;5.75;77.55;95894.91;5072420;28;20049;-81
2021/05/06 06:06:38;;;;;;;2.22;1.35;;;;;;;5.91;77.62;95899.72;5073031;28;20409;-78
2021/05/06 06:09:04;;;;;;;1.30;1.20;;;;;;;6.10;77.37;95895.50;5072894;28;20055;-79
2021/05/06 06:11:32;;;;;;;1.50;1.40;;;;;;;6.21;76.77;95894.88;5072800;28;20477;-79
2021/05/06 06:14:05;;;;;;;1.80;1.70;;;;;;;6.24;76.15;95897.09;5071038;28;20047;-79
2021/05/06 06:16:32;;;;;;;2.35;1.45;;;;;;;6.11;75.38;95884.13;5072495;28;20044;-80
2021/05/06 06:19:02;;;;;;;2.25;1.50;;;;;;;6.01;75.52;95886.34;5073578;28;20044;-80
2021/05/06 06:24:06;;;;;;;1.50;1.10;;;;;;;6.20;76.26;95887.28;5063413;28;20501;-78
2021/05/06 06:26:32;;;;;;;1.88;1.45;;;;;;;6.36;76.44;95879.00;5076776;28;20040;-77
2021/05/06 06:29:06;;;;;;;1.73;1.50;;;;;;;6.34;75.39;95883.66;5076151;28;20488;-78
2021/05/06 06:31:47;;;;;;;2.10;1.63;;;;;;;6.19;74.90;95881.25;5075561;28;20048;-78
2021/05/06 06:34:14;;;;;;;3.25;1.58;;;;;;;6.10;75.12;95877.28;5066746;28;20271;-77
2021/05/06 06:36:45;;;;;;;2.72;1.58;;;;;;;5.99;74.91;95867.50;5076137;28;20067;-78
2021/05/06 06:39:14;;;;;;;1.90;1.58;;;;;;;5.92;75.21;95874.47;5076919;28;20044;-77
2021/05/06 06:41:41;;;;;;;5.35;2.20;;;;;;;5.98;75.42;95861.47;5076245;28;20037;-77
2021/05/06 06:44:08;;;;;;;1.73;1.63;;;;;;;5.96;75.29;95860.88;5075920;28;20055;-77
2021/05/06 06:46:34;;;;;;;2.88;1.88;;;;;;;6.06;75.53;95860.47;5076649;28;20457;-78
2021/05/06 06:49:02;;;;;;;2.22;1.83;;;;;;;6.17;75.53;95857.25;5076174;28;20045;-77
2021/05/06 06:51:29;;;;;;;2.90;1.60;;;;;;;6.17;74.83;95872.84;5075945;28;20032;-77
2021/05/06 06:53:55;;;;;;;1.88;1.75;;;;;;;6.16;74.94;95863.47;5075645;28;20380;-77
2021/05/06 06:56:22;;;;;;;3.38;1.75;;;;;;;6.17;75.00;95854.63;5079894;28;20044;-78
2021/05/06 06:58:50;;;;;;;4.50;1.85;;;;;;;6.21;74.98;95844.63;5075339;28;20053;-78
2021/05/06 07:01:17;;;;;;;3.75;1.80;;;;;;;6.23;75.29;95838.19;5076340;28;20052;-78
2021/05/06 07:03:44;;;;;;;2.65;1.80;;;;;;;6.33;75.31;95840.38;5075680;28;20053;-78
2021/05/06 07:06:11;;;;;;;2.00;1.80;;;;;;;6.41;75.00;95839.38;5075911;28;20404;-79
2021/05/06 07:08:40;;;;;;;2.03;1.90;;;;;;;6.47;74.92;95825.53;5065626;28;20481;-77
2021/05/06 07:11:07;;;;;;;6.55;2.00;;;;;;;6.58;74.93;95834.47;5076135;28;20033;-78
2021/05/06 07:13:34;;;;;;;2.50;2.22;;;;;;;6.71;74.78;95837.00;5074048;28;20051;-77
2021/05/06 07:16:07;;;;;;;2.80;1.65;;;;;;;6.83;74.41;95831.97;5074063;28;20378;-78
2021/05/06 07:18:34;;;;;;;6.78;1.60;;;;;;;6.99;74.40;95838.47;5075368;28;20055;-77
2021/05/06 07:21:03;;;;;;;2.53;1.65;;;;;;;7.21;74.08;95831.13;5074332;28;20032;-77
2021/05/06 07:23:31;;;;;;;3.70;1.98;;;;;;;7.47;73.53;95830.91;5076222;28;20032;-78
2021/05/06 07:25:59;;;;;;;1.73;1.55;;;;;;;7.84;73.18;95823.16;5075359;28;20047;-77
2021/05/06 07:28:37;;;;;;;1.80;1.40;;;;;;;8.19;70.15;95817.38;5075521;28;20033;-78
2021/05/06 07:31:05;;;;;;;2.85;1.15;;;;;;;8.72;72.22;95819.38;5075440;28;20032;-78
2021/05/06 07:33:34;;;;;;;3.75;1.75;;;;;;;9.20;71.10;95829.97;5077611;28;20408;-78
2021/05/06 07:36:01;;;;;;;2.97;1.52;;;;;;;9.57;70.31;95819.38;5075364;28;20045;-78
2021/05/06 07:38:30;;;;;;;2.83;1.52;;;;;;;9.50;68.64;95814.25;5074759;28;20041;-78
2021/05/06 07:41:00;;;;;;;3.63;1.70;;;;;;;9.42;69.03;95814.56;5075413;28;20044;-78
2021/05/06 07:43:29;;;;;;;3.75;1.55;;;;;;;9.30;68.67;95820.59;5074929;28;20044;-78
2021/05/06 07:45:55;;;;;;;1.92;1.17;;;;;;;9.22;68.36;95825.31;5057791;28;20036;-78
2021/05/06 07:48:23;;;;;;;2.60;1.50;;;;;;;9.13;68.22;95815.22;5072659;28;20504;-78
2021/05/06 07:50:50;;;;;;;1.63;1.25;;;;;;;9.05;67.84;95815.53;5073588;28;20047;-79
2021/05/06 07:53:23;;;;;;;2.80;1.42;;;;;;;9.07;67.81;95808.25;5075517;28;20028;-78
2021/05/06 07:55:50;;;;;;;1.92;1.38;;;;;;;9.21;67.85;95815.91;5041876;28;20469;-78
2021/05/06 07:58:16;;;;;;;3.35;1.50;;;;;;;9.24;67.27;95808.41;5072924;28;20044;-78
2021/05/06 08:00:42;;;;;;;1.75;1.52;;;;;;;9.28;67.24;95808.72;5073413;28;20062;-78
2021/05/06 08:03:09;;;;;;;4.63;1.52;;;;;;;9.24;66.48;95805.78;5072981;28;20408;-79
2021/05/06 08:05:36;;;;;;;2.17;1.40;;;;;;;9.21;66.28;95808.06;5072941;28;20053;-78
2021/05/06 08:08:04;;;;;;;4.82;1.85;;;;;;;9.18;66.14;95811.13;5073435;28;20032;-78
2021/05/06 08:10:30;;;;;;;1.92;1.35;;;;;;;9.05;65.66;95807.69;5072969;28;20049;-78
2021/05/06 08:12:58;;;;;;;1.52;1.38;;;;;;;8.96;65.68;95805.59;5074879;28;20044;-79
2021/05/06 08:15:25;;;;;;;2.40;1.60;;;;;;;8.92;65.74;95816.53;5072900;28;20055;-79
2021/05/06 08:17:51;;;;;;;2.25;1.60;;;;;;;8.90;65.56;95813.31;5073475;28;20043;-79
2021/05/06 08:20:18;;;;;;;2.53;1.30;;;;;;;8.88;65.42;95797.06;5073202;28;20036;-79
2021/05/06 08:22:46;;;;;;;1.70;1.27;;;;;;;8.89;65.46;95806.50;5073329;28;20047;-78
2021/05/06 08:25:14;;;;;;;4.75;1.73;;;;;;;8.90;65.14;95797.63;5073745;28;20064;-78
2021/05/06 08:27:42;;;;;;;2.63;1.45;;;;;;;8.87;65.23;95797.28;5073987;28;20033;-78
2021/05/06 08:30:13;;;;;;;1.83;1.17;;;;;;;8.86;64.81;95798.28;5073803;28;20036;-78
2021/05/06 08:32:39;;;;;;;1.90;1.08;;;;;;;8.81;65.05;95795.56;5057480;28;20033;-78
2021/05/06 08:35:07;;;;;;;3.75;1.75;;;;;;;8.83;65.22;95796.13;5074300;28;20469;-78
2021/05/06 08:37:34;;;;;;;2.13;1.35;;;;;;;8.85;65.14;95788.84;5056420;28;20039;-78
2021/05/06 08:40:02;;;;;;;2.25;1.38;;;;;;;8.84;65.05;95792.47;5074461;28;20040;-78
2021/05/06 08:42:30;;;;;;;2.08;1.20;;;;;;;8.83;65.16;95794.31;5073750;28;20049;-78
2021/05/06 08:44:57;;;;;;;3.65;1.10;;;;;;;9.04;66.99;95790.38;5072705;28;20028;-78
2021/05/06 08:47:24;;;;;;;2.33;1.40;;;;;;;9.31;66.15;95789.97;5073965;28;20043;-79
2021/05/06 08:49:51;;;;;;;3.00;1.30;;;;;;;9.38;65.28;95779.41;5072559;28;20111;-79
2021/05/06 08:52:19;;;;;;;2.40;1.70;;;;;;;9.31;64.88;95787.38;5073861;28;20032;-79
2021/05/06 08:54:50;;;;;;;1.23;1.00;;;;;;;9.19;64.47;95787.34;5072792;28;20032;-79
2021/05/06 08:57:21;;;;;;;2.33;1.23;;;;;;;9.06;64.08;95780.50;5073552;28;20373;-79
2021/05/06 08:59:49;;;;;;;1.75;1.10;;;;;;;8.98;64.46;95793.09;5073981;28;20056;-78
2021/05/06 09:02:15;;;;;;;1.38;1.13;;;;;;;8.88;64.88;95791.84;5073446;28;20045;-80
2021/05/06 09:04:42;;;;;;;3.88;1.23;;;;;;;8.82;64.89;95795.34;5073399;28;20032;-80
2021/05/06 09:07:10;;;;;;;2.33;1.33;;;;;;;8.71;64.68;95789.06;5074363;28;20040;-79
2021/05/06 09:09:43;;;;;;;3.00;1.10;;;;;;;8.62;65.24;95797.41;5073537;28;20059;-79
2021/05/06 09:12:09;;;;;;;1.35;0.90;;;;;;;8.57;65.39;95805.91;5073575;28;20408;-78
2021/05/06 09:14:46;;;;;;;1.67;1.27;;;;;;;8.55;66.17;95813.19;5039861;28;20044;-78
2021/05/06 09:17:33;;;;;;;2.30;1.10;;;;;;;8.49;66.31;95824.50;5073966;28;20040;-78
2021/05/06 09:20:07;;;;;;;1.95;1.27;;;;;;;8.43;65.85;95817.53;5073632;28;20396;-79
2021/05/06 09:22:35;;;;;;;2.10;1.30;;;;;;;8.35;65.81;95818.59;5072826;28;20051;-80
2021/05/06 09:25:28;;;;;;;2.63;1.38;;;;;;;8.25;68.22;95829.59;5073993;28;20041;-77
2021/05/06 09:28:16;;;;;;;2.30;1.15;;;;;;;8.18;68.25;95831.44;5065732;28;20059;-76
2021/05/06 09:30:59;;;;;;;3.03;1.35;;;;;;;8.10;68.63;95826.50;5073584;28;20450;-76
2021/05/06 09:33:39;;;;;;;1.30;1.00;;;;;;;8.04;67.05;95822.97;5073284;28;20048;-75
2021/05/06 09:36:13;;;;;;;1.67;1.10;;;;;;;7.99;68.60;95825.41;5073380;28;20033;-75
2021/05/06 09:38:47;;;;;;;2.03;1.45;;;;;;;7.97;69.19;95826.66;5073544;28;20045;-74
2021/05/06 09:41:18;;;;;;;1.42;0.98;;;;;;;7.97;68.84;95830.06;5073025;28;20059;-75
2021/05/06 09:43:45;;;;;;;1.85;1.20;;;;;;;7.88;68.33;95818.31;5073195;28;20045;-74
2021/05/06 09:46:39;;;;;;;1.73;1.20;;;;;;;7.89;71.90;95838.16;5073071;28;20369;-74
2021/05/06 09:49:07;;;;;;;1.43;1.10;;;;;;;7.85;68.62;95823.94;5073283;28;20048;-74
2021/05/06 09:51:35;;;;;;;1.38;1.10;;;;;;;7.85;68.94;95813.50;5072522;28;20040;-74
2021/05/06 09:54:04;;;;;;;1.35;0.90;;;;;;;7.84;68.60;95815.31;5073893;28;20039;-74
2021/05/06 09:56:31;;;;;;;1.42;0.90;;;;;;;7.81;68.53;95809.72;5076745;28;20044;-74
2021/05/06 09:58:57;;;;;;;1.02;0.95;;;;;;;7.81;68.96;95820.16;5077080;28;20059;-75
2021/05/06 10:01:41;;;;;;;1.33;1.00;;;;;;;7.84;69.33;95825.78;5077521;28;20477;-75
2021/05/06 10:04:13;;;;;;;1.40;1.00;;;;;;;7.88;69.34;95819.09;5076852;28;20029;-75
2021/05/06 10:06:40;;;;;;;1.25;1.15;;;;;;;7.91;69.15;95821.28;5077321;28;20052;-75
2021/05/06 10:09:07;;;;;;;1.25;1.15;;;;;;;7.96;69.21;95823.25;5077674;28;20484;-75
2021/05/06 10:11:33;;;;;;;1.65;1.20;;;;;;;7.95;69.36;95815.63;5076739;28;20511;-75
2021/05/06 10:13:59;;;;;;;1.17;1.10;;;;;;;7.93;69.34;95810.63;5076836;28;20033;-75
2021/05/06 10:16:26;;;;;;;1.20;1.10;;;;;;;7.86;69.46;95807.28;5077238;28;20044;-75
2021/05/06 10:18:53;;;;;;;2.00;1.00;;;;;;;7.79;69.46;95804.75;5076926;28;20404;-75
2021/05/06 10:21:21;;;;;;;3.53;1.08;;;;;;;7.79;69.68;95814.38;5076786;28;20044;-75
2021/05/06 10:23:51;;;;;;;1.10;0.98;;;;;;;7.83;70.11;95807.72;5077551;28;20029;-75
2021/05/06 10:26:19;;;;;;;1.27;0.95;;;;;;;7.81;69.83;95802.72;5076700;28;20040;-75
2021/05/06 10:28:50;;;;;;;0.95;0.70;;;;;;;7.84;69.85;95797.06;5076908;28;20040;-75
2021/05/06 10:31:17;;;;;;;1.90;1.00;;;;;;;7.88;69.93;95800.03;5077261;28;20060;-75
2021/05/06 10:33:45;;;;;;;2.60;1.40;;;;;;;7.89;70.23;95797.19;5076241;28;20052;-75
2021/05/06 10:36:13;;;;;;;1.00;0.90;;;;;;;7.84;70.62;95791.03;5076707;28;20362;-75
2021/05/06 10:38:42;;;;;;;1.05;0.80;;;;;;;7.86;70.42;95781.97;5076295;28;20051;-76
2021/05/06 10:41:29;;;;;;;0.70;0.70;;;;;;;7.85;71.39;95782.19;5076865;28;20045;-75
2021/05/06 10:44:09;;;;;;;0.88;0.70;;;;;;;7.83;70.36;95774.59;5076351;28;20044;-75
2021/05/06 10:47:03;;;;;;;0.85;0.60;;;;;;;7.92;70.83;95772.50;5076987;28;20381;-75
2021/05/06 10:49:48;;;;;;;0.50;0.50;;;;;;;7.98;70.28;95762.97;5076084;28;20040;-75
2021/05/06 10:52:16;;;;;;;0.75;0.60;;;;;;;8.08;70.49;95758.03;5076001;28;20036;-75
2021/05/06 10:54:46;;;;;;;0.40;0.40;;;;;;;8.14;70.34;95757.94;5076341;28;20037;-74
2021/05/06 10:57:12;;;;;;;0.30;0.30;;;;;;;8.19;69.77;95753.88;5063494;28;20465;-75
2021/05/06 10:59:44;;;;;;;0.50;0.50;;;;;;;8.29;69.81;95762.00;5076253;28;20075;-75
2021/05/06 11:02:31;;;;;;;1.00;0.45;;;;;;;8.42;69.57;95754.06;5076285;28;20394;-74
2021/05/06 11:05:10;;;;;;;0.52;0.50;;;;;;;8.51;69.86;95747.47;5075352;28;20044;-75
2021/05/06 11:07:37;;;;;;;0.57;0.57;;;;;;;8.63;69.49;95739.69;5075658;28;20033;-75
2021/05/06 11:10:05;;;;;;;0.55;0.55;;;;;;;8.72;69.17;95743.56;5075822;28;20052;-75
2021/05/06 11:12:37;;;;;;;0.47;0.47;;;;;;;8.76;68.60;95741.31;5075907;28;20036;-75
2021/05/06 11:15:04;;;;;;;0.75;0.75;;;;;;;8.76;68.43;95738.72;5075844;28;20041;-75
2021/05/06 11:17:34;;;;;;;0.60;0.60;;;;;;;8.67;67.52;95735.63;5075735;28;20488;-75
2021/05/06 11:20:03;;;;;;;0.40;0.38;;;;;;;8.65;68.48;95732.44;5075844;28;20047;-75
2021/05/06 11:22:41;;;;;;;0.60;0.50;;;;;;;8.56;66.48;95728.53;5075548;28;20532;-75
2021/05/06 11:25:26;;;;;;;0.50;0.50;;;;;;;8.49;67.41;95725.22;5075523;28;20392;-75
2021/05/06 11:27:56;;;;;;;0.50;0.50;;;;;;;8.49;68.37;95725.22;5067053;28;20049;-75
2021/05/06 11:30:44;;;;;;;0.45;0.40;;;;;;;8.50;67.60;95716.34;5075129;28;20052;-75
2021/05/06 11:33:20;;;;;;;1.42;0.60;;;;;;;8.54;67.68;95712.28;5075880;28;20051;-75
2021/05/06 11:36:07;;;;;;;0.65;0.65;;;;;;;8.56;67.15;95702.38;5062858;28;20424;-75
2021/05/06 11:41:04;;;;;;;0.55;0.55;;;;;;;8.57;67.80;95687.50;5075333;28;20067;-75
2021/05/06 11:43:35;;;;;;;1.02;0.70;;;;;;;8.60;67.96;95687.84;5074986;28;20028;-75
2021/05/06 11:46:05;;;;;;;0.80;0.80;;;;;;;8.62;67.31;95677.19;5075155;28;20052;-75
2021/05/06 11:48:40;;;;;;;0.60;0.60;;;;;;;8.68;67.64;95679.69;5075271;28;20378;-75
2021/05/06 11:51:08;;;;;;;1.65;0.98;;;;;;;8.80;68.10;95671.06;5074448;28;20037;-76
2021/05/06 11:53:36;;;;;;;0.60;0.60;;;;;;;8.88;68.25;95668.94;5075195;28;20041;-75
2021/05/06 11:56:13;;;;;;;1.42;0.68;;;;;;;8.91;67.47;95652.78;5075575;28;20056;-76
2021/05/06 11:58:41;;;;;;;1.00;0.70;;;;;;;8.93;67.51;95653.34;5074968;28;20063;-75
2021/05/06 12:01:11;;;;;;;0.82;0.80;;;;;;;8.94;67.51;95649.75;5074833;28;20044;-75
2021/05/06 12:03:39;;;;;;;0.70;0.63;;;;;;;8.92;67.28;95641.31;5074767;28;20432;-76
2021/05/06 12:06:07;;;;;;;1.02;1.02;;;;;;;8.86;67.29;95636.19;5075030;28;20045;-76
2021/05/06 12:08:45;;;;;;;0.60;0.60;;;;;;;8.79;67.35;95636.28;5074535;28;20056;-75
2021/05/06 12:11:13;;;;;;;0.60;0.60;;;;;;;8.77;67.56;95633.09;5074810;28;20035;-75
2021/05/06 12:13:46;;;;;;;0.82;0.70;;;;;;;8.73;67.37;95624.94;5074879;28;20044;-75
2021/05/06 12:16:19;;;;;;;0.77;0.77;;;;;;;8.66;67.26;95621.63;5073898;28;20036;-75
2021/05/06 12:18:57;;;;;;;0.93;0.93;;;;;;;8.53;67.37;95619.22;5074358;28;20036;-76
2021/05/06 12:21:35;;;;;;;0.90;0.90;;;;;;;8.50;68.38;95617.06;5074434;28;20040;-76
2021/05/06 12:24:03;;;;;;;0.77;0.77;;;;;;;8.48;67.92;95608.63;5074857;28;20037;-76
2021/05/06 12:26:29;;;;;;;5.07;4.68;;;;;;;8.49;68.43;95603.19;5064104;28;20413;-75
2021/05/06 12:28:57;;;;;;;0.70;0.70;;;;;;;8.49;68.67;95600.59;5074380;28;20040;-75
2021/05/06 12:31:24;;;;;;;2.47;0.80;;;;;;;8.46;68.76;95597.63;5073939;28;20503;-75
2021/05/06 12:33:50;;;;;;;1.00;0.70;;;;;;;8.47;68.99;95586.94;5074410;28;20044;-75
2021/05/06 12:36:17;;;;;;;1.70;1.00;;;;;;;8.50;69.30;95586.50;5074820;28;20036;-74
2021/05/06 12:38:44;;;;;;;1.10;1.10;;;;;;;8.51;69.55;95576.84;5074017;28;20028;-74
2021/05/06 12:41:12;;;;;;;1.38;1.10;;;;;;;8.47;69.57;95576.50;5074379;28;20051;-74
2021/05/06 12:44:04;;;;;;;1.00;0.90;;;;;;;8.48;72.61;95579.91;5073841;28;20036;-74
2021/05/06 12:46:31;;;;;;;0.98;0.98;;;;;;;8.47;70.13;95573.09;5072054;28;20049;-74
2021/05/06 12:48:59;;;;;;;0.80;0.80;;;;;;;8.48;70.32;95569.44;5073678;28;20421;-74
2021/05/06 12:51:36;;;;;;;1.35;1.05;;;;;;;8.51;71.06;95564.56;5073962;28;20043;-74
2021/05/06 12:54:12;;;;;;;0.90;0.90;;;;;;;8.53;72.35;95566.97;5073792;28;20044;-74
2021/05/06 12:56:42;;;;;;;0.80;0.80;;;;;;;8.51;71.41;95561.97;5073917;28;20040;-74
2021/05/06 12:59:29;;;;;;;0.90;0.90;;;;;;;8.50;74.42;95572.63;5063900;28;20048;-74
2021/05/06 13:02:11;;;;;;;1.05;0.85;;;;;;;8.39;73.97;95576.78;5073744;28;20056;-73
2021/05/06 13:04:56;;;;;;;1.23;1.13;;;;;;;8.34;74.68;95581.91;5073850;28;20041;-73
2021/05/06 13:07:22;;;;;;;1.50;1.40;;;;;;;8.29;72.91;95576.53;5073863;28;20500;-73
2021/05/06 13:09:51;;;;;;;1.83;1.30;;;;;;;8.24;73.48;95586.88;5073510;28;20044;-73
2021/05/06 13:12:19;;;;;;;1.20;1.10;;;;;;;8.17;73.68;95576.53;5073534;28;20043;-73
2021/05/06 13:14:51;;;;;;;1.05;0.90;;;;;;;8.34;76.68;95579.31;5073519;28;20039;-73
2021/05/06 13:17:33;;;;;;;1.20;1.10;;;;;;;8.62;75.98;95563.00;5073818;28;20399;-73
2021/05/06 13:20:15;;;;;;;1.35;1.23;;;;;;;8.68;75.30;95564.69;5073915;28;20119;-73
2021/05/06 13:22:57;;;;;;;1.25;1.15;;;;;;;8.62;75.33;95555.16;5057741;28;20115;-73
2021/05/06 13:25:47;;;;;;;1.02;1.00;;;;;;;8.58;75.33;95545.38;5073631;28;20044;-73
2021/05/06 13:28:37;;;;;;;1.30;1.10;;;;;;;8.53;74.34;95543.44;5063000;28;20040;-74
2021/05/06 13:31:26;;;;;;;1.40;1.30;;;;;;;8.51;74.74;95529.81;5073112;28;20468;-74
2021/05/06 13:34:15;;;;;;;1.92;1.83;;;;;;;8.45;76.25;95515.84;5072598;28;20040;-73
2021/05/06 13:36:57;;;;;;;1.38;1.27;;;;;;;8.43;75.14;95512.66;5073290;28;20035;-74
2021/05/06 13:39:24;;;;;;;2.80;2.60;;;;;;;8.36;75.24;95509.34;5074044;28;20036;-74
2021/05/06 13:41:51;;;;;;;2.63;2.42;;;;;;;8.25;75.36;95492.63;5073006;28;20040;-73
2021/05/06 13:44:19;;;;;;;2.22;1.25;;;;;;;8.25;75.83;95495.25;5072988;28;20032;-73
2021/05/06 13:46:54;;;;;;;2.67;2.47;;;;;;;8.19;76.02;95493.53;5072953;28;20040;-74
2021/05/06 13:49:22;;;;;;;1.58;1.48;;;;;;;8.09;76.43;95485.47;5073166;28;20040;-73
2021/05/06 13:51:49;;;;;;;1.67;1.58;;;;;;;8.05;76.73;95482.50;5073370;28;20037;-73
2021/05/06 13:54:17;;;;;;;1.52;1.42;;;;;;;8.04;76.88;95480.09;5072805;28;20461;-73
2021/05/06 13:56:44;;;;;;;1.48;1.38;;;;;;;8.01;77.35;95470.13;5072709;28;20385;-74
2021/05/06 13:59:11;;;;;;;1.60;1.30;;;;;;;8.04;77.48;95473.09;5072194;28;20056;-73
2021/05/06 14:01:37;;;;;;;2.05;1.55;;;;;;;8.00;77.40;95458.09;5073089;28;20049;-74
2021/05/06 14:04:05;;;;;;;1.80;1.60;;;;;;;7.92;77.69;95454.00;5072817;28;20040;-73
2021/05/06 14:06:32;;;;;;;1.90;1.45;;;;;;;7.80;77.99;95446.16;5072870;28;20039;-73
2021/05/06 14:08:58;;;;;;;1.45;1.30;;;;;;;7.78;78.52;95448.19;5072018;28;20055;-73
2021/05/06 14:11:27;;;;;;;1.67;1.45;;;;;;;7.79;79.23;95449.78;5073259;28;20041;-74
2021/05/06 14:13:56;;;;;;;1.40;1.30;;;;;;;7.74;79.42;95439.22;5072758;28;20045;-73
2021/05/06 14:16:26;;;;;;;2.10;1.90;;;;;;;7.67;79.85;95433.31;5073094;28;20048;-73
2021/05/06 14:18:54;;;;;;;1.40;1.30;;;;;;;7.58;79.76;95432.03;5073454;28;20178;-73
2021/05/06 14:21:22;;;;;;;1.23;1.13;;;;;;;7.49;79.92;95434.16;5072564;28;20405;-73
2021/05/06 14:23:51;;;;;;;0.80;0.80;;;;;;;7.47;80.43;95431.78;5072585;28;20508;-73
2021/05/06 14:26:18;;;;;;;0.90;0.90;;;;;;;7.46;80.41;95416.38;5071430;28;20028;-73
2021/05/06 14:28:48;;;;;;;1.10;1.00;;;;;;;7.42;80.91;95420.44;5072578;28;20056;-73
2021/05/06 14:31:15;;;;;;;0.55;0.50;;;;;;;7.35;81.03;95411.91;5062354;28;20400;-73
2021/05/06 14:33:41;;;;;;;1.52;0.60;;;;;;;7.24;80.77;95410.84;5072814;28;20043;-73
2021/05/06 14:36:09;;;;;;;0.50;0.50;;;;;;;7.17;80.84;95413.53;5072855;28;20045;-73
2021/05/06 14:38:36;;;;;;;0.70;0.70;;;;;;;7.16;81.35;95405.94;5071278;28;20037;-73
2021/05/06 14:41:03;;;;;;;1.38;0.70;;;;;;;7.17;81.64;95403.13;5075215;28;20045;-74
2021/05/06 14:43:30;;;;;;;0.98;0.90;;;;;;;7.19;82.18;95389.88;5077070;28;20032;-73
2021/05/06 14:45:56;;;;;;;0.82;0.77;;;;;;;7.21;82.07;95383.41;5076220;28;20408;-73
2021/05/06 14:48:23;;;;;;;0.60;0.60;;;;;;;7.27;82.03;95384.34;5076059;28;20044;-74
2021/05/06 14:50:49;;;;;;;0.55;0.55;;;;;;;7.31;81.65;95381.06;5061118;28;20032;-73
2021/05/06 14:53:16;;;;;;;0.60;0.60;;;;;;;7.30;81.72;95373.44;5076097;28;20039;-74
2021/05/06 14:55:43;;;;;;;1.23;0.68;;;;;;;7.30;82.21;95368.22;5076111;28;20040;-73
2021/05/06 14:58:10;;;;;;;0.85;0.85;;;;;;;7.28;81.77;95365.84;5075754;28;20044;-74
2021/05/06 15:00:37;;;;;;;0.98;0.90;;;;;;;7.24;81.92;95363.91;5076896;28;20049;-73
2021/05/06 15:03:04;;;;;;;0.85;0.70;;;;;;;7.28;82.18;95365.84;5076117;28;20053;-73
2021/05/06 15:05:30;;;;;;;1.52;0.63;;;;;;;7.29;82.01;95362.22;5075785;28;20039;-73
2021/05/06 15:08:01;;;;;;;0.70;0.70;;;;;;;7.30;82.76;95355.97;5076080;28;20063;-73
2021/05/06 15:10:27;;;;;;;0.75;0.75;;;;;;;7.28;82.61;95355.41;5075098;28;20392;-73
2021/05/06 15:12:53;;;;;;;1.10;1.10;;;;;;;7.26;82.93;95343.63;5074706;28;20059;-73
2021/05/06 15:15:20;;;;;;;1.17;1.15;;;;;;;7.21;83.57;95356.53;5075820;28;20040;-73